createdAt,value
2018-10-19T00:00:55.664Z,15.63
2018-10-19T00:03:24.316Z,15.71
2018-10-19T00:05:52.888Z,15.71
2018-10-19T00:08:21.484Z,15.72
2018-10-19T00:10:50.161Z,15.77
2018-10-19T00:13:18.767Z,15.73
2018-10-19T00:15:47.435Z,15.73
2018-10-19T00:18:16.268Z,15.74
2018-10-19T00:20:44.924Z,15.74
2018-10-19T00:23:13.829Z,15.75
2018-10-19T00:25:42.524Z,15.72
2018-10-19T00:28:11.104Z,15.59
2018-10-19T00:30:39.714Z,15.43
2018-10-19T00:33:08.459Z,15.52
2018-10-19T00:35:36.992Z,15.47
2018-10-19T00:38:06.023Z,15.37
2018-10-19T00:40:34.972Z,15.40
2018-10-19T00:43:03.656Z,15.40
2018-10-19T00:45:37.472Z,15.30
2018-10-19T00:48:11.096Z,15.12
2018-10-19T00:50:40.797Z,14.95
2018-10-19T00:53:10.187Z,14.97
2018-10-19T00:55:40.968Z,14.94
2018-10-19T00:58:10.056Z,14.87
2018-10-19T01:00:42.871Z,14.78
2018-10-19T01:03:11.998Z,14.73
2018-10-19T01:05:41.435Z,14.79
2018-10-19T01:08:10.839Z,14.84
2018-10-19T01:10:39.449Z,14.84
2018-10-19T01:13:08.067Z,14.80
2018-10-19T01:15:36.683Z,14.88
2018-10-19T01:18:05.324Z,14.92
2018-10-19T01:20:33.943Z,15.04
2018-10-19T01:23:02.651Z,15.07
2018-10-19T01:25:31.232Z,15.07
2018-10-19T01:27:59.804Z,15.12
2018-10-19T01:30:28.428Z,15.15
2018-10-19T01:32:57.011Z,15.15
2018-10-19T01:35:25.591Z,15.16
2018-10-19T01:37:54.496Z,15.12
2018-10-19T01:40:23.088Z,15.09
2018-10-19T01:42:51.758Z,15.08
2018-10-19T01:45:20.367Z,14.98
2018-10-19T01:47:48.961Z,14.96
2018-10-19T01:50:17.560Z,14.96
2018-10-19T01:52:46.258Z,14.85
2018-10-19T01:55:14.847Z,14.85
2018-10-19T01:57:43.440Z,14.86
2018-10-19T02:00:12.106Z,14.80
2018-10-19T02:02:40.689Z,14.80
2018-10-19T02:05:09.491Z,14.79
2018-10-19T02:07:38.156Z,14.75
2018-10-19T02:10:07.418Z,14.75
2018-10-19T02:12:36.067Z,14.71
2018-10-19T02:15:04.765Z,14.65
2018-10-19T02:17:33.350Z,14.64
2018-10-19T02:20:01.941Z,14.63
2018-10-19T02:22:30.572Z,14.54
2018-10-19T02:24:59.174Z,14.53
2018-10-19T02:27:27.875Z,14.53
2018-10-19T02:29:56.564Z,14.52
2018-10-19T02:32:25.152Z,14.58
2018-10-19T02:34:53.780Z,14.55
2018-10-19T02:37:22.388Z,14.42
2018-10-19T02:39:50.954Z,14.19
2018-10-19T02:42:19.574Z,14.11
2018-10-19T02:44:48.208Z,14.14
2018-10-19T02:47:16.800Z,14.08
2018-10-19T02:49:45.364Z,14.04
2018-10-19T02:52:13.973Z,13.96
2018-10-19T02:54:42.547Z,14.04
2018-10-19T02:57:11.149Z,14.09
2018-10-19T02:59:39.739Z,14.13
2018-10-19T03:02:08.337Z,14.06
2018-10-19T03:04:36.895Z,13.91
2018-10-19T03:07:06.496Z,13.84
2018-10-19T03:09:35.132Z,13.86
2018-10-19T03:12:03.716Z,13.76
2018-10-19T03:14:32.396Z,13.78
2018-10-19T03:17:00.977Z,13.78
2018-10-19T03:19:30.516Z,13.77
2018-10-19T03:21:59.183Z,13.74
2018-10-19T03:24:27.782Z,13.84
2018-10-19T03:26:56.401Z,13.98
2018-10-19T03:29:24.986Z,14.02
2018-10-19T03:31:53.588Z,13.88
2018-10-19T03:34:22.186Z,13.70
2018-10-19T03:36:50.872Z,13.55
2018-10-19T03:39:19.617Z,13.47
2018-10-19T03:41:48.144Z,13.47
2018-10-19T03:44:16.827Z,13.49
2018-10-19T03:46:45.391Z,13.54
2018-10-19T03:49:14.037Z,13.57
2018-10-19T03:51:42.923Z,13.56
2018-10-19T03:54:11.512Z,13.53
2018-10-19T03:56:40.092Z,13.53
2018-10-19T03:59:09.057Z,13.53
2018-10-19T04:01:37.612Z,13.57
2018-10-19T04:04:06.225Z,13.56
2018-10-19T04:06:34.876Z,13.55
2018-10-19T04:09:03.696Z,13.53
2018-10-19T04:11:32.227Z,13.47
2018-10-19T04:14:00.857Z,13.38
2018-10-19T04:16:29.436Z,13.38
2018-10-19T04:18:58.020Z,13.43
2018-10-19T04:21:26.695Z,13.46
2018-10-19T04:23:55.272Z,13.40
2018-10-19T04:26:23.871Z,13.32
2018-10-19T04:28:52.764Z,13.36
2018-10-19T04:31:21.323Z,13.38
2018-10-19T04:33:49.912Z,13.39
2018-10-19T04:36:18.600Z,13.34
2018-10-19T04:38:47.184Z,13.31
2018-10-19T04:41:15.855Z,13.36
2018-10-19T04:43:44.424Z,13.39
2018-10-19T04:46:13.192Z,13.41
2018-10-19T04:48:41.756Z,13.39
2018-10-19T04:51:10.505Z,13.33
2018-10-19T04:53:39.152Z,13.37
2018-10-19T04:56:07.623Z,13.37
2018-10-19T04:58:36.232Z,13.33
2018-10-19T05:01:04.945Z,13.21
2018-10-19T05:03:33.504Z,13.05
2018-10-19T05:06:02.242Z,12.92
2018-10-19T05:08:30.697Z,12.83
2018-10-19T05:10:59.309Z,12.80
2018-10-19T05:13:28.056Z,12.76
2018-10-19T05:15:56.657Z,12.72
2018-10-19T05:18:25.295Z,12.65
2018-10-19T05:20:54.022Z,12.63
2018-10-19T05:23:22.588Z,12.62
2018-10-19T05:25:51.171Z,12.66
2018-10-19T05:28:19.776Z,12.75
2018-10-19T05:30:48.368Z,12.82
2018-10-19T05:33:16.935Z,12.85
2018-10-19T05:35:45.620Z,12.85
2018-10-19T05:38:14.261Z,12.79
2018-10-19T05:40:42.779Z,12.78
2018-10-19T05:43:11.392Z,12.83
2018-10-19T05:45:39.955Z,12.89
2018-10-19T05:48:08.542Z,13.00
2018-10-19T05:50:37.199Z,13.00
2018-10-19T05:53:06.341Z,13.04
2018-10-19T05:55:34.964Z,13.03
2018-10-19T05:58:03.669Z,13.03
2018-10-19T06:00:32.259Z,13.04
2018-10-19T06:03:00.840Z,13.00
2018-10-19T06:05:29.439Z,12.98
2018-10-19T06:07:58.045Z,13.02
2018-10-19T06:10:26.603Z,13.08
2018-10-19T06:12:55.438Z,13.17
2018-10-19T06:15:24.029Z,13.25
2018-10-19T06:17:52.604Z,13.30
2018-10-19T06:20:21.283Z,13.26
2018-10-19T06:22:49.839Z,13.24
2018-10-19T06:25:18.469Z,13.20
2018-10-19T06:27:47.145Z,13.24
2018-10-19T06:30:15.708Z,13.28
2018-10-19T06:32:44.283Z,13.25
2018-10-19T06:35:13.052Z,13.30
2018-10-19T06:37:41.567Z,13.26
2018-10-19T06:40:10.132Z,13.22
2018-10-19T06:42:38.740Z,13.14
2018-10-19T06:45:07.592Z,13.16
2018-10-19T06:47:36.213Z,13.16
2018-10-19T06:50:06.668Z,13.16
2018-10-19T06:52:35.205Z,13.17
2018-10-19T06:55:03.807Z,13.26
2018-10-19T06:57:32.609Z,13.34
2018-10-19T07:00:01.172Z,13.35
2018-10-19T07:02:29.748Z,13.37
2018-10-19T07:04:58.537Z,13.45
2018-10-19T07:07:27.104Z,13.50
2018-10-19T07:09:55.678Z,13.58
2018-10-19T07:12:24.376Z,13.64
2018-10-19T07:14:52.982Z,13.56
2018-10-19T07:17:21.552Z,13.54
2018-10-19T07:19:50.147Z,13.63
2018-10-19T07:22:18.728Z,13.66
2018-10-19T07:24:47.318Z,13.68
2018-10-19T07:27:15.964Z,13.66
2018-10-19T07:29:44.552Z,13.60
2018-10-19T07:32:13.175Z,13.61
2018-10-19T07:34:42.123Z,13.67
2018-10-19T07:37:10.839Z,13.73
2018-10-19T07:39:39.428Z,13.71
2018-10-19T07:42:08.130Z,13.72
2018-10-19T07:44:36.632Z,13.76
2018-10-19T07:47:05.718Z,13.74
2018-10-19T07:49:34.405Z,13.78
2018-10-19T07:52:03.011Z,13.84
2018-10-19T07:54:31.643Z,13.90
2018-10-19T07:57:00.190Z,13.87
2018-10-19T07:59:28.796Z,13.99
2018-10-19T08:01:57.427Z,14.09
2018-10-19T08:04:26.091Z,14.10
2018-10-19T08:06:54.707Z,14.12
2018-10-19T08:09:23.327Z,14.14
2018-10-19T08:11:51.927Z,14.19
2018-10-19T08:14:20.804Z,14.26
2018-10-19T08:16:49.388Z,14.26
2018-10-19T08:19:17.991Z,14.32
2018-10-19T08:21:46.571Z,14.45
2018-10-19T08:24:15.160Z,14.50
2018-10-19T08:26:43.845Z,14.51
2018-10-19T08:29:12.438Z,14.54
2018-10-19T08:31:41.015Z,14.70
2018-10-19T08:34:09.698Z,14.75
2018-10-19T08:36:38.275Z,14.79
2018-10-19T08:39:08.556Z,14.87
2018-10-19T08:41:37.223Z,14.97
2018-10-19T08:44:05.796Z,15.05
2018-10-19T08:46:38.140Z,15.17
2018-10-19T08:49:09.146Z,15.20
2018-10-19T08:51:38.356Z,15.24
2018-10-19T08:54:07.099Z,15.32
2018-10-19T08:56:35.699Z,15.59
2018-10-19T08:59:04.561Z,15.84
2018-10-19T09:01:33.157Z,16.08
2018-10-19T09:04:01.777Z,16.22
2018-10-19T09:06:30.451Z,16.47
2018-10-19T09:08:59.073Z,16.74
2018-10-19T09:11:27.755Z,16.84
2018-10-19T09:13:56.272Z,16.55
2018-10-19T09:16:24.879Z,17.02
2018-10-19T09:18:53.456Z,17.35
2018-10-19T09:21:22.107Z,17.40
2018-10-19T09:23:50.679Z,17.59
2018-10-19T09:26:19.286Z,17.56
2018-10-19T09:28:47.912Z,17.46
2018-10-19T09:31:16.516Z,17.40
2018-10-19T09:33:45.089Z,17.50
2018-10-19T09:36:13.891Z,17.59
2018-10-19T09:38:42.387Z,17.98
2018-10-19T09:41:11.051Z,18.47
2018-10-19T09:43:39.635Z,18.84
2018-10-19T09:46:08.226Z,19.07
2018-10-19T09:48:36.804Z,19.15
2018-10-19T09:51:05.949Z,19.40
2018-10-19T09:53:34.482Z,19.51
2018-10-19T09:56:03.088Z,19.83
2018-10-19T09:58:31.789Z,20.07
2018-10-19T10:01:00.396Z,20.08
2018-10-19T10:03:28.960Z,19.97
2018-10-19T10:05:57.575Z,20.50
2018-10-19T10:08:26.163Z,20.70
2018-10-19T10:10:54.773Z,20.66
2018-10-19T10:13:23.456Z,20.19
2018-10-19T10:15:52.073Z,20.56
2018-10-19T10:18:20.651Z,20.72
2018-10-19T10:20:49.323Z,19.92
2018-10-19T10:23:17.893Z,20.28
2018-10-19T10:25:46.484Z,20.24
2018-10-19T10:28:15.209Z,20.35
2018-10-19T10:30:43.820Z,20.11
2018-10-19T10:33:12.505Z,20.43
2018-10-19T10:35:41.116Z,19.83
2018-10-19T10:38:09.704Z,19.63
2018-10-19T10:40:38.288Z,19.89
2018-10-19T10:43:07.040Z,19.69
2018-10-19T10:45:35.706Z,19.98
2018-10-19T10:48:04.296Z,19.85
2018-10-19T10:50:32.928Z,20.04
2018-10-19T10:53:01.499Z,19.58
2018-10-19T10:55:30.145Z,19.78
2018-10-19T10:57:58.754Z,19.67
2018-10-19T11:00:27.338Z,19.69
2018-10-19T11:02:55.912Z,19.59
2018-10-19T11:05:24.600Z,19.61
2018-10-19T11:07:53.181Z,20.00
2018-10-19T11:10:21.752Z,20.82
2018-10-19T11:12:50.708Z,22.42
2018-10-19T11:15:19.272Z,22.97
2018-10-19T11:17:47.865Z,24.04
2018-10-19T11:20:16.644Z,25.28
2018-10-19T11:22:45.243Z,25.61
2018-10-19T11:25:13.937Z,26.85
2018-10-19T11:27:42.855Z,27.17
2018-10-19T11:30:11.450Z,27.45
2018-10-19T11:32:40.044Z,28.35
2018-10-19T11:35:09.163Z,28.92
2018-10-19T11:37:37.854Z,28.38
2018-10-19T11:40:40.355Z,29.36
2018-10-19T11:43:09.179Z,30.29
2018-10-19T11:45:38.896Z,30.26
2018-10-19T11:48:07.588Z,30.13
2018-10-19T11:50:36.167Z,29.55
2018-10-19T11:53:05.148Z,28.24
2018-10-19T11:55:33.768Z,25.78
2018-10-19T11:58:02.406Z,24.34
2018-10-19T12:00:30.940Z,23.65
2018-10-19T12:02:59.896Z,23.20
2018-10-19T12:05:28.487Z,22.92
2018-10-19T12:07:57.071Z,22.70
2018-10-19T12:10:25.861Z,21.84
2018-10-19T12:12:54.657Z,21.83
2018-10-19T12:15:23.250Z,21.79
2018-10-19T12:17:52.068Z,21.70
2018-10-19T12:20:22.688Z,21.30
2018-10-19T12:22:51.435Z,20.95
2018-10-19T12:25:20.180Z,20.92
2018-10-19T12:27:48.766Z,20.91
2018-10-19T12:30:17.729Z,20.96
2018-10-19T12:32:46.301Z,21.01
2018-10-19T12:35:15.431Z,20.81
2018-10-19T12:37:44.360Z,20.60
2018-10-19T12:40:13.135Z,20.71
2018-10-19T12:42:41.770Z,20.88
2018-10-19T12:45:24.507Z,20.78
2018-10-19T12:47:53.089Z,20.70
2018-10-19T12:50:21.676Z,20.74
2018-10-19T12:52:50.312Z,20.79
2018-10-19T12:55:18.916Z,20.91
2018-10-19T12:57:47.504Z,20.74
2018-10-19T13:00:16.142Z,20.87
2018-10-19T13:02:44.896Z,20.58
2018-10-19T13:05:13.495Z,20.66
2018-10-19T13:07:42.330Z,20.68
2018-10-19T13:10:11.051Z,20.58
2018-10-19T13:12:39.744Z,20.55
2018-10-19T13:15:08.514Z,20.51
2018-10-19T13:17:37.008Z,20.36
2018-10-19T13:20:05.588Z,20.26
2018-10-19T13:22:34.568Z,20.37
2018-10-19T13:25:03.164Z,20.33
2018-10-19T13:27:31.756Z,20.33
2018-10-19T13:30:00.500Z,20.25
2018-10-19T13:32:28.962Z,20.15
2018-10-19T13:34:57.723Z,20.27
2018-10-19T13:37:26.345Z,20.28
2018-10-19T13:39:54.920Z,20.30
2018-10-19T13:42:23.520Z,20.41
2018-10-19T13:44:52.194Z,20.47
2018-10-19T13:47:20.760Z,20.50
2018-10-19T13:49:49.345Z,20.51
2018-10-19T13:52:18.046Z,20.48
2018-10-19T13:54:46.580Z,20.37
2018-10-19T13:57:15.198Z,20.42
2018-10-19T13:59:43.867Z,20.38
2018-10-19T14:02:12.419Z,20.50
2018-10-19T14:04:41.015Z,20.53
2018-10-19T14:07:09.731Z,20.47
2018-10-19T14:09:38.308Z,20.53
2018-10-19T14:12:06.892Z,20.52
2018-10-19T14:14:35.849Z,20.50
2018-10-19T14:17:04.802Z,20.58
2018-10-19T14:19:33.327Z,20.54
2018-10-19T14:22:01.960Z,20.49
2018-10-19T14:24:30.528Z,20.49
2018-10-19T14:26:59.119Z,20.48
2018-10-19T14:29:27.927Z,20.38
2018-10-19T14:31:56.503Z,20.47
2018-10-19T14:34:25.088Z,20.46
2018-10-19T14:36:53.684Z,20.34
2018-10-19T14:39:22.272Z,20.38
2018-10-19T14:41:50.876Z,20.42
2018-10-19T14:44:19.599Z,20.44
2018-10-19T14:46:48.213Z,20.27
2018-10-19T14:49:16.811Z,20.26
2018-10-19T14:51:45.456Z,20.24
2018-10-19T14:54:14.060Z,20.28
2018-10-19T14:56:42.667Z,20.27
2018-10-19T14:59:11.704Z,20.32
2018-10-19T15:01:40.259Z,20.21
2018-10-19T15:04:09.285Z,20.24
2018-10-19T15:06:38.178Z,20.31
2018-10-19T15:09:09.786Z,20.28
2018-10-19T15:11:38.618Z,20.25
2018-10-19T15:14:06.991Z,20.25
2018-10-19T15:16:35.612Z,20.24
2018-10-19T15:19:04.265Z,20.23
2018-10-19T15:21:32.850Z,20.25
2018-10-19T15:24:01.643Z,20.21
2018-10-19T15:26:30.354Z,20.17
2018-10-19T15:28:58.935Z,20.09
2018-10-19T15:31:27.524Z,20.12
2018-10-19T15:33:56.168Z,20.12
2018-10-19T15:36:24.764Z,20.09
2018-10-19T15:38:53.360Z,20.08
2018-10-19T15:41:22.024Z,20.07
2018-10-19T15:43:50.601Z,20.07
2018-10-19T15:46:19.179Z,20.03
2018-10-19T15:48:47.889Z,20.00
2018-10-19T15:51:16.508Z,20.00
2018-10-19T15:53:45.145Z,19.87
2018-10-19T15:56:13.839Z,19.92
2018-10-19T15:58:42.412Z,19.87
2018-10-19T16:01:10.979Z,19.76
2018-10-19T16:03:39.584Z,19.65
2018-10-19T16:06:08.257Z,19.55
2018-10-19T16:08:36.796Z,19.46
2018-10-19T16:11:06.022Z,19.39
2018-10-19T16:13:34.677Z,19.35
2018-10-19T16:16:03.301Z,19.31
2018-10-19T16:18:32.045Z,19.26
2018-10-19T16:21:00.939Z,19.23
2018-10-19T16:23:33.376Z,19.20
2018-10-19T16:26:02.044Z,19.14
2018-10-19T16:28:30.766Z,19.10
2018-10-19T16:30:59.417Z,19.04
2018-10-19T16:33:28.331Z,18.98
2018-10-19T16:35:57.394Z,18.97
2018-10-19T16:38:26.631Z,18.92
2018-10-19T16:40:55.739Z,18.94
2018-10-19T16:43:24.316Z,18.91
2018-10-19T16:45:52.936Z,18.87
2018-10-19T16:48:21.531Z,18.82
2018-10-19T16:50:50.104Z,18.80
2018-10-19T16:53:18.784Z,18.82
2018-10-19T16:55:47.383Z,18.79
2018-10-19T16:58:16.058Z,18.79
2018-10-19T17:00:44.658Z,18.73
2018-10-19T17:03:13.237Z,18.70
2018-10-19T17:05:41.803Z,18.62
2018-10-19T17:08:10.416Z,18.54
2018-10-19T17:10:39.007Z,18.44
2018-10-19T17:13:07.604Z,18.28
2018-10-19T17:15:36.216Z,18.19
2018-10-19T17:18:04.991Z,18.05
2018-10-19T17:20:33.591Z,17.95
2018-10-19T17:23:04.635Z,17.96
2018-10-19T17:25:33.264Z,17.89
2018-10-19T17:28:01.868Z,17.86
2018-10-19T17:30:30.584Z,17.89
2018-10-19T17:32:59.168Z,17.80
2018-10-19T17:35:27.736Z,17.84
2018-10-19T17:37:56.428Z,17.77
2018-10-19T17:40:25.045Z,17.73
2018-10-19T17:42:53.675Z,17.74
2018-10-19T17:45:22.508Z,17.72
2018-10-19T17:47:52.021Z,17.73
2018-10-19T17:50:20.759Z,17.66
2018-10-19T17:52:49.676Z,17.64
2018-10-19T17:55:18.509Z,17.64
2018-10-19T17:57:47.121Z,17.61
2018-10-19T18:00:16.087Z,17.53
2018-10-19T18:02:44.800Z,17.53
2018-10-19T18:05:13.555Z,17.54
2018-10-19T18:07:42.843Z,17.53
2018-10-19T18:10:11.575Z,17.47
2018-10-19T18:12:40.499Z,17.46
2018-10-19T18:15:10.038Z,17.47
2018-10-19T18:17:39.233Z,17.45
2018-10-19T18:20:09.395Z,17.41
2018-10-19T18:22:38.493Z,17.28
2018-10-19T18:25:07.655Z,17.28
2018-10-19T18:27:36.301Z,17.22
2018-10-19T18:30:05.212Z,17.18
2018-10-19T18:32:33.943Z,17.09
2018-10-19T18:35:03.112Z,17.09
2018-10-19T18:37:31.931Z,16.96
2018-10-19T18:40:00.544Z,16.95
2018-10-19T18:42:29.143Z,16.92
2018-10-19T18:44:57.740Z,16.92
2018-10-19T18:47:26.324Z,16.93
2018-10-19T18:49:55.162Z,16.96
2018-10-19T18:52:23.846Z,16.92
2018-10-19T18:54:52.702Z,16.96
2018-10-19T18:57:21.315Z,16.96
2018-10-19T18:59:49.912Z,16.95
2018-10-19T19:02:18.593Z,16.91
2018-10-19T19:04:47.899Z,16.91
2018-10-19T19:07:16.704Z,16.79
2018-10-19T19:09:50.855Z,16.81
2018-10-19T19:12:19.635Z,16.73
2018-10-19T19:14:48.216Z,16.70
2018-10-19T19:17:17.204Z,16.62
2018-10-19T19:19:49.983Z,16.45
2018-10-19T19:22:19.116Z,16.41
2018-10-19T19:24:53.268Z,16.30
2018-10-19T19:27:22.352Z,16.32
2018-10-19T19:29:51.040Z,16.33
2018-10-19T19:32:19.680Z,16.19
2018-10-19T19:34:48.464Z,16.02
2018-10-19T19:37:17.380Z,15.99
2018-10-19T19:39:45.972Z,15.96
2018-10-19T19:42:19.896Z,15.99
2018-10-19T19:44:49.416Z,16.02
2018-10-19T19:47:23.421Z,16.00
2018-10-19T19:49:52.088Z,16.06
2018-10-19T19:52:22.048Z,16.05
2018-10-19T19:54:50.698Z,16.03
2018-10-19T19:57:19.297Z,16.03
2018-10-19T19:59:48.056Z,15.99
2018-10-19T20:02:16.811Z,15.93
2018-10-19T20:04:45.585Z,15.88
2018-10-19T20:07:17.012Z,15.86
2018-10-19T20:09:46.311Z,15.86
2018-10-19T20:12:14.989Z,15.83
2018-10-19T20:14:43.517Z,15.79
2018-10-19T20:17:12.461Z,15.74
2018-10-19T20:19:41.108Z,15.68
2018-10-19T20:22:09.709Z,15.62
2018-10-19T20:24:38.552Z,15.59
2018-10-19T20:27:07.128Z,15.54
2018-10-19T20:29:35.707Z,15.49
2018-10-19T20:32:04.604Z,15.49
2018-10-19T20:34:33.175Z,15.49
2018-10-19T20:37:01.796Z,15.45
2018-10-19T20:39:30.419Z,15.43
2018-10-19T20:41:59.018Z,15.37
2018-10-19T20:44:27.792Z,15.30
2018-10-19T20:46:56.680Z,15.26
2018-10-19T20:49:25.279Z,15.20
2018-10-19T20:51:53.871Z,15.17
2018-10-19T20:54:22.608Z,15.08
2018-10-19T20:56:51.403Z,15.05
2018-10-19T20:59:20.136Z,14.99
2018-10-19T21:01:48.839Z,14.96
2018-10-19T21:04:17.603Z,14.93
2018-10-19T21:06:46.273Z,14.91
2018-10-19T21:09:14.999Z,14.84
2018-10-19T21:11:43.588Z,14.81
2018-10-19T21:14:12.482Z,14.80
2018-10-19T21:16:40.992Z,14.78
2018-10-19T21:19:09.645Z,14.76
2018-10-19T21:21:38.228Z,14.73
2018-10-19T21:24:07.015Z,14.72
2018-10-19T21:26:35.789Z,14.70
2018-10-19T21:29:04.437Z,14.67
2018-10-19T21:31:33.004Z,14.66
2018-10-19T21:34:01.668Z,14.63
2018-10-19T21:36:30.279Z,14.51
2018-10-19T21:38:58.947Z,14.47
2018-10-19T21:41:27.767Z,14.42
2018-10-19T21:43:56.428Z,14.37
2018-10-19T21:46:25.129Z,14.37
2018-10-19T21:48:53.912Z,14.34
2018-10-19T21:51:22.624Z,14.36
2018-10-19T21:53:51.683Z,14.34
2018-10-19T21:56:21.064Z,14.33
2018-10-19T21:58:49.686Z,14.29
2018-10-19T22:01:18.611Z,14.24
2018-10-19T22:03:47.278Z,14.20
2018-10-19T22:06:16.025Z,14.15
2018-10-19T22:08:44.872Z,14.10
2018-10-19T22:11:14.256Z,14.06
2018-10-19T22:13:42.795Z,14.03
2018-10-19T22:16:12.622Z,14.01
2018-10-19T22:18:41.516Z,13.97
2018-10-19T22:21:10.167Z,13.91
2018-10-19T22:23:39.185Z,13.89
2018-10-19T22:26:07.826Z,13.86
2018-10-19T22:28:36.460Z,13.86
2018-10-19T22:31:06.144Z,13.81
2018-10-19T22:33:35.329Z,13.82
2018-10-19T22:36:04.508Z,13.82
2018-10-19T22:38:33.610Z,13.80
2018-10-19T22:41:02.382Z,13.75
2018-10-19T22:43:31.131Z,13.75
2018-10-19T22:45:59.763Z,13.72
2018-10-19T22:48:28.351Z,13.69
2018-10-19T22:50:56.927Z,13.63
2018-10-19T22:53:25.571Z,13.60
2018-10-19T22:55:54.223Z,13.57
2018-10-19T22:58:23.459Z,13.58
2018-10-19T23:00:52.533Z,13.55
2018-10-19T23:03:21.124Z,13.51
2018-10-19T23:05:49.730Z,13.43
2018-10-19T23:08:18.361Z,13.38
2018-10-19T23:10:46.984Z,13.29
2018-10-19T23:13:16.193Z,13.26
2018-10-19T23:15:44.988Z,13.26
2018-10-19T23:18:13.585Z,13.22
2018-10-19T23:20:42.183Z,13.17
2018-10-19T23:23:10.891Z,13.12
2018-10-19T23:25:39.513Z,13.08
2018-10-19T23:28:08.104Z,13.09
2018-10-19T23:30:36.789Z,13.07
2018-10-19T23:33:05.441Z,13.04
2018-10-19T23:35:34.053Z,13.06
2018-10-19T23:38:02.741Z,13.04
2018-10-19T23:40:31.419Z,13.05
2018-10-19T23:43:00.070Z,13.04
2018-10-19T23:45:29.060Z,12.99
2018-10-19T23:47:57.663Z,12.92
2018-10-19T23:50:26.240Z,12.85
2018-10-19T23:52:54.911Z,12.79
2018-10-19T23:55:23.517Z,12.75
2018-10-19T23:57:52.131Z,12.72
